createdAt,value
2019-01-12T00:00:49.609Z,8.50
2019-01-12T00:01:49.620Z,9.00
2019-01-12T00:02:49.685Z,8.50
2019-01-12T00:03:49.717Z,8.30
2019-01-12T00:04:49.770Z,8.60
2019-01-12T00:05:49.822Z,8.60
2019-01-12T00:06:49.872Z,8.60
2019-01-12T00:07:49.912Z,9.20
2019-01-12T00:08:49.958Z,8.70
2019-01-12T00:09:49.981Z,8.90
2019-01-12T00:10:50.045Z,9.30
2019-01-12T00:11:50.099Z,11.10
2019-01-12T00:12:50.150Z,8.50
2019-01-12T00:13:50.192Z,9.00
2019-01-12T00:14:50.220Z,9.70
2019-01-12T00:15:50.286Z,9.70
2019-01-12T00:16:50.343Z,9.50
2019-01-12T00:17:50.394Z,10.50
2019-01-12T00:18:50.410Z,10.00
2019-01-12T00:19:50.492Z,10.10
2019-01-12T00:20:50.529Z,12.00
2019-01-12T00:21:50.609Z,10.70
2019-01-12T00:22:50.630Z,11.20
2019-01-12T00:23:50.704Z,11.50
2019-01-12T00:24:50.710Z,11.60
2019-01-12T00:25:50.776Z,12.20
2019-01-12T00:26:50.818Z,12.90
2019-01-12T00:27:50.865Z,12.80
2019-01-12T00:28:50.906Z,15.30
2019-01-12T00:29:51.139Z,14.20
2019-01-12T00:30:51.115Z,16.10
2019-01-12T00:31:51.047Z,16.10
2019-01-12T00:32:51.087Z,16.20
2019-01-12T00:33:51.145Z,15.40
2019-01-12T00:34:51.202Z,15.60
2019-01-12T00:35:51.228Z,15.20
2019-01-12T00:36:51.300Z,20.70
2019-01-12T00:37:51.336Z,19.00
2019-01-12T00:38:51.392Z,17.40
2019-01-12T00:39:51.530Z,17.90
2019-01-12T00:40:51.470Z,18.00
2019-01-12T00:41:51.530Z,20.60
2019-01-12T00:42:51.578Z,21.60
2019-01-12T00:43:51.628Z,19.90
2019-01-12T00:44:51.650Z,18.60
2019-01-12T00:45:51.716Z,18.10
2019-01-12T00:46:51.752Z,18.30
2019-01-12T00:47:51.793Z,18.70
2019-01-12T00:48:51.873Z,18.90
2019-01-12T00:49:51.910Z,20.20
2019-01-12T00:50:51.954Z,19.50
2019-01-12T00:51:51.996Z,19.90
2019-01-12T00:52:52.069Z,23.10
2019-01-12T00:53:52.105Z,21.60
2019-01-12T00:54:52.126Z,21.70
2019-01-12T00:55:52.263Z,22.20
2019-01-12T00:56:52.236Z,22.00
2019-01-12T00:57:52.323Z,21.70
2019-01-12T00:58:52.335Z,22.00
2019-01-12T00:59:52.363Z,21.90
2019-01-12T01:00:52.447Z,22.20
2019-01-12T01:01:52.485Z,23.10
2019-01-12T01:02:52.547Z,23.00
2019-01-12T01:03:52.578Z,25.20
2019-01-12T01:04:52.639Z,26.40
2019-01-12T01:05:52.678Z,25.40
2019-01-12T01:06:52.725Z,26.00
2019-01-12T01:07:52.759Z,24.70
2019-01-12T01:08:52.871Z,25.30
2019-01-12T01:09:52.881Z,25.10
2019-01-12T01:10:52.915Z,25.60
2019-01-12T01:11:52.944Z,25.60
2019-01-12T01:12:52.992Z,24.50
2019-01-12T01:13:53.039Z,25.30
2019-01-12T01:14:53.091Z,23.50
2019-01-12T01:15:53.155Z,24.20
2019-01-12T01:16:53.206Z,24.90
2019-01-12T01:17:53.252Z,23.70
2019-01-12T01:18:53.299Z,24.10
2019-01-12T01:19:53.344Z,23.60
2019-01-12T01:20:53.394Z,24.80
2019-01-12T01:21:53.488Z,23.40
2019-01-12T01:22:53.485Z,23.90
2019-01-12T01:23:53.530Z,24.70
2019-01-12T01:24:53.581Z,24.40
2019-01-12T01:25:53.642Z,24.20
2019-01-12T01:26:53.692Z,29.90
2019-01-12T01:27:53.785Z,24.50
2019-01-12T01:28:53.777Z,26.00
2019-01-12T01:29:53.826Z,26.10
2019-01-12T01:30:53.848Z,26.60
2019-01-12T01:31:53.974Z,26.60
2019-01-12T01:32:53.967Z,26.70
2019-01-12T01:33:54.002Z,25.00
2019-01-12T01:34:54.056Z,24.80
2019-01-12T01:35:54.107Z,25.60
2019-01-12T01:36:54.142Z,24.90
2019-01-12T01:37:54.245Z,25.50
2019-01-12T01:38:54.255Z,26.20
2019-01-12T01:39:54.292Z,27.20
2019-01-12T01:40:54.343Z,28.50
2019-01-12T01:41:54.407Z,26.50
2019-01-12T01:42:54.414Z,27.50
2019-01-12T01:43:54.527Z,26.90
2019-01-12T01:44:54.525Z,27.90
2019-01-12T01:45:54.585Z,27.60
2019-01-12T01:46:54.658Z,27.20
2019-01-12T01:47:54.678Z,28.60
2019-01-12T01:48:54.718Z,29.60
2019-01-12T01:49:54.805Z,29.90
2019-01-12T01:50:54.824Z,30.20
2019-01-12T01:51:54.844Z,30.10
2019-01-12T01:52:54.921Z,30.10
2019-01-12T01:53:54.962Z,30.50
2019-01-12T01:54:55.034Z,32.80
2019-01-12T01:55:55.061Z,32.30
2019-01-12T01:56:55.118Z,33.60
2019-01-12T01:57:55.157Z,33.70
2019-01-12T01:58:55.190Z,35.40
2019-01-12T01:59:55.254Z,34.70
2019-01-12T02:00:55.308Z,34.90
2019-01-12T02:01:55.340Z,35.60
2019-01-12T02:02:55.428Z,36.00
2019-01-12T02:03:55.470Z,36.70
2019-01-12T02:04:55.491Z,36.20
2019-01-12T02:05:55.529Z,37.00
2019-01-12T02:06:55.593Z,36.40
2019-01-12T02:07:55.628Z,36.60
2019-01-12T02:08:55.682Z,37.00
2019-01-12T02:09:55.721Z,35.40
2019-01-12T02:10:55.785Z,36.50
2019-01-12T02:11:55.811Z,36.50
2019-01-12T02:12:55.865Z,37.30
2019-01-12T02:13:55.921Z,36.50
2019-01-12T02:14:55.965Z,37.40
2019-01-12T02:15:56.008Z,39.00
2019-01-12T02:16:56.054Z,38.40
2019-01-12T02:17:56.110Z,37.00
2019-01-12T02:18:56.163Z,37.10
2019-01-12T02:19:56.205Z,37.80
2019-01-12T02:20:56.289Z,38.50
2019-01-12T02:21:56.339Z,37.60
2019-01-12T02:22:56.389Z,37.50
2019-01-12T02:23:56.409Z,38.00
2019-01-12T02:25:00.113Z,38.50
2019-01-12T02:25:56.490Z,37.80
2019-01-12T02:26:56.540Z,37.70
2019-01-12T02:27:56.601Z,37.40
2019-01-12T02:28:56.611Z,39.00
2019-01-12T02:29:56.667Z,38.90
2019-01-12T02:30:56.742Z,38.10
2019-01-12T02:31:56.785Z,39.20
2019-01-12T02:32:56.839Z,38.60
2019-01-12T02:33:56.916Z,38.30
2019-01-12T02:34:56.924Z,38.50
2019-01-12T02:35:57.012Z,39.40
2019-01-12T02:36:57.021Z,38.90
2019-01-12T02:37:57.053Z,38.40
2019-01-12T02:38:57.131Z,39.00
2019-01-12T02:39:57.176Z,39.00
2019-01-12T02:40:57.206Z,38.20
2019-01-12T02:41:57.261Z,39.60
2019-01-12T02:42:57.305Z,38.30
2019-01-12T02:43:57.329Z,39.40
2019-01-12T02:44:57.448Z,38.90
2019-01-12T02:45:57.452Z,40.60
2019-01-12T02:46:57.491Z,39.60
2019-01-12T02:47:57.536Z,40.90
2019-01-12T02:48:57.598Z,40.80
2019-01-12T02:49:57.664Z,41.90
2019-01-12T02:50:57.680Z,40.50
2019-01-12T02:51:57.748Z,42.00
2019-01-12T02:52:57.765Z,42.20
2019-01-12T02:53:57.829Z,41.60
2019-01-12T02:54:57.930Z,41.60
2019-01-12T02:55:57.988Z,42.40
2019-01-12T02:56:57.962Z,44.30
2019-01-12T02:57:58.031Z,43.00
2019-01-12T02:58:58.071Z,42.70
2019-01-12T02:59:58.126Z,42.80
2019-01-12T03:00:58.156Z,42.00
2019-01-12T03:01:58.213Z,42.90
2019-01-12T03:02:58.243Z,43.60
2019-01-12T03:03:58.318Z,45.10
2019-01-12T03:04:58.392Z,44.60
2019-01-12T03:05:58.401Z,44.40
2019-01-12T03:06:58.488Z,46.40
2019-01-12T03:07:58.501Z,45.60
2019-01-12T03:08:58.561Z,50.60
2019-01-12T03:09:58.603Z,48.10
2019-01-12T03:10:58.625Z,48.90
2019-01-12T03:11:58.708Z,50.40
2019-01-12T03:12:58.742Z,48.80
2019-01-12T03:13:58.834Z,48.60
2019-01-12T03:14:58.838Z,50.20
2019-01-12T03:15:58.870Z,51.20
2019-01-12T03:16:58.914Z,49.50
2019-01-12T03:17:58.984Z,54.40
2019-01-12T03:18:58.998Z,52.90
2019-01-12T03:19:59.074Z,55.30
2019-01-12T03:20:59.173Z,54.60
2019-01-12T03:21:59.168Z,55.80
2019-01-12T03:22:59.206Z,57.20
2019-01-12T03:23:59.252Z,51.20
2019-01-12T03:24:59.304Z,53.40
2019-01-12T03:25:59.429Z,51.00
2019-01-12T03:26:59.558Z,53.20
2019-01-12T03:27:59.446Z,52.90
2019-01-12T03:28:59.506Z,54.10
2019-01-12T03:29:59.557Z,55.50
2019-01-12T03:30:59.602Z,51.30
2019-01-12T03:31:59.646Z,54.80
2019-01-12T03:32:59.702Z,53.10
2019-01-12T03:33:59.723Z,51.20
2019-01-12T03:34:59.774Z,50.50
2019-01-12T03:35:59.864Z,49.80
2019-01-12T03:36:59.870Z,50.30
2019-01-12T03:37:59.932Z,49.70
2019-01-12T03:38:59.974Z,51.70
2019-01-12T03:40:00.038Z,51.20
2019-01-12T03:41:00.070Z,51.60
2019-01-12T03:42:00.126Z,51.50
2019-01-12T03:43:00.164Z,50.90
2019-01-12T03:44:00.202Z,52.20
2019-01-12T03:45:00.288Z,50.70
2019-01-12T03:46:00.294Z,50.60
2019-01-12T03:47:00.403Z,52.00
2019-01-12T03:48:00.433Z,52.00
2019-01-12T03:49:00.437Z,52.10
2019-01-12T03:50:00.539Z,51.30
2019-01-12T03:51:00.539Z,52.50
2019-01-12T03:52:00.588Z,52.90
2019-01-12T03:53:00.630Z,53.60
2019-01-12T03:54:00.672Z,54.90
2019-01-12T03:55:00.733Z,55.60
2019-01-12T03:56:00.793Z,56.50
2019-01-12T03:57:00.805Z,55.80
2019-01-12T03:58:00.869Z,57.90
2019-01-12T03:59:00.934Z,58.40
2019-01-12T04:00:00.982Z,58.90
2019-01-12T04:01:01.014Z,59.80
2019-01-12T04:02:01.075Z,57.70
2019-01-12T04:03:01.130Z,60.60
2019-01-12T04:04:01.154Z,58.10
2019-01-12T04:05:01.203Z,58.40
2019-01-12T04:06:01.260Z,59.80
2019-01-12T04:07:01.303Z,60.00
2019-01-12T04:08:01.359Z,59.40
2019-01-12T04:09:01.394Z,59.60
2019-01-12T04:10:01.470Z,60.50
2019-01-12T04:11:01.483Z,60.20
2019-01-12T04:12:01.536Z,59.00
2019-01-12T04:13:01.569Z,59.80
2019-01-12T04:14:01.630Z,59.90
2019-01-12T04:15:01.661Z,60.10
2019-01-12T04:16:01.737Z,58.90
2019-01-12T04:17:01.923Z,60.20
2019-01-12T04:18:01.807Z,59.60
2019-01-12T04:19:01.859Z,61.60
2019-01-12T04:20:01.918Z,61.60
2019-01-12T04:21:01.982Z,59.30
2019-01-12T04:22:02.009Z,60.80
2019-01-12T04:23:02.047Z,60.50
2019-01-12T04:24:02.105Z,61.10
2019-01-12T04:25:02.157Z,61.50
2019-01-12T04:26:02.200Z,62.00
2019-01-12T04:27:02.241Z,62.80
2019-01-12T04:28:02.383Z,62.30
2019-01-12T04:29:02.336Z,61.80
2019-01-12T04:30:02.381Z,60.30
2019-01-12T04:31:02.419Z,60.00
2019-01-12T04:32:02.487Z,58.90
2019-01-12T04:33:02.509Z,61.00
2019-01-12T04:34:02.566Z,58.80
2019-01-12T04:35:02.614Z,60.00
2019-01-12T04:36:02.662Z,61.30
2019-01-12T04:37:02.707Z,60.80
2019-01-12T04:38:02.750Z,61.40
2019-01-12T04:39:02.805Z,60.70
2019-01-12T04:40:02.864Z,62.00
2019-01-12T04:41:02.944Z,61.60
2019-01-12T04:42:02.936Z,61.20
2019-01-12T04:43:03.002Z,61.50
2019-01-12T04:44:03.077Z,61.20
2019-01-12T04:45:03.077Z,61.90
2019-01-12T04:46:03.119Z,61.30
2019-01-12T04:47:03.222Z,60.60
2019-01-12T04:48:03.242Z,60.60
2019-01-12T04:49:03.299Z,59.30
2019-01-12T04:50:03.329Z,60.90
2019-01-12T04:51:03.385Z,61.60
2019-01-12T04:52:03.436Z,59.10
2019-01-12T04:53:03.477Z,58.50
2019-01-12T04:54:03.543Z,61.80
2019-01-12T04:55:03.545Z,60.20
2019-01-12T04:56:03.613Z,60.30
2019-01-12T04:57:03.652Z,64.00
2019-01-12T04:58:03.705Z,60.30
2019-01-12T04:59:03.731Z,61.30
2019-01-12T05:00:03.841Z,61.70
2019-01-12T05:01:03.840Z,59.40
2019-01-12T05:02:03.899Z,61.20
2019-01-12T05:03:03.951Z,58.90
2019-01-12T05:04:03.995Z,58.90
2019-01-12T05:05:04.056Z,58.80
2019-01-12T05:06:04.071Z,61.50
2019-01-12T05:07:04.123Z,60.80
2019-01-12T05:08:04.175Z,57.40
2019-01-12T05:09:04.229Z,58.20
2019-01-12T05:10:04.293Z,55.60
2019-01-12T05:11:04.461Z,56.40
2019-01-12T05:12:04.363Z,56.70
2019-01-12T05:13:04.470Z,55.00
2019-01-12T05:14:04.455Z,53.60
2019-01-12T05:15:04.547Z,55.10
2019-01-12T05:16:04.595Z,55.60
2019-01-12T05:17:04.624Z,51.80
2019-01-12T05:18:04.661Z,58.30
2019-01-12T05:19:04.691Z,55.90
2019-01-12T05:20:04.754Z,56.10
2019-01-12T05:21:04.775Z,53.30
2019-01-12T05:22:04.866Z,56.00
2019-01-12T05:23:04.892Z,54.80
2019-01-12T05:24:04.952Z,53.50
2019-01-12T05:25:04.998Z,55.50
2019-01-12T05:26:05.070Z,53.80
2019-01-12T05:27:05.117Z,54.90
2019-01-12T05:28:05.128Z,53.40
2019-01-12T05:29:05.217Z,53.50
2019-01-12T05:30:05.206Z,52.70
2019-01-12T05:31:05.270Z,54.30
2019-01-12T05:32:05.314Z,53.30
2019-01-12T05:33:05.377Z,54.60
2019-01-12T05:34:05.417Z,54.00
2019-01-12T05:35:05.441Z,52.50
2019-01-12T05:36:05.504Z,53.10
2019-01-12T05:37:05.558Z,53.40
2019-01-12T05:38:05.592Z,51.80
2019-01-12T05:39:05.662Z,53.90
2019-01-12T05:40:05.689Z,52.80
2019-01-12T05:41:05.751Z,52.40
2019-01-12T05:42:05.809Z,53.50
2019-01-12T05:43:05.820Z,50.60
2019-01-12T05:44:05.889Z,52.20
2019-01-12T05:45:05.931Z,51.30
2019-01-12T05:46:05.984Z,52.00
2019-01-12T05:47:06.185Z,50.10
2019-01-12T05:48:06.077Z,51.20
2019-01-12T05:49:06.104Z,49.10
2019-01-12T05:50:06.197Z,48.30
2019-01-12T05:51:06.204Z,48.10
2019-01-12T05:52:06.286Z,49.50
2019-01-12T05:53:06.277Z,50.40
2019-01-12T05:54:06.349Z,44.90
2019-01-12T05:55:06.409Z,44.40
2019-01-12T05:56:06.443Z,42.90
2019-01-12T05:57:06.486Z,43.20
2019-01-12T05:58:06.687Z,43.80
2019-01-12T05:59:06.576Z,42.40
2019-01-12T06:00:06.618Z,43.20
2019-01-12T06:01:06.664Z,42.20
2019-01-12T06:02:06.716Z,41.30
2019-01-12T06:03:06.773Z,41.90
2019-01-12T06:04:06.838Z,43.40
2019-01-12T06:05:06.879Z,41.60
2019-01-12T06:06:06.923Z,41.50
2019-01-12T06:07:06.979Z,39.30
2019-01-12T06:08:07.007Z,40.20
2019-01-12T06:09:07.081Z,41.00
2019-01-12T06:10:07.106Z,40.70
2019-01-12T06:11:07.164Z,41.40
2019-01-12T06:12:07.206Z,41.20
2019-01-12T06:13:07.237Z,38.90
2019-01-12T06:14:07.296Z,40.30
2019-01-12T06:15:07.357Z,38.30
2019-01-12T06:16:07.387Z,38.90
2019-01-12T06:17:07.419Z,37.90
2019-01-12T06:18:07.482Z,39.50
2019-01-12T06:19:07.512Z,40.50
2019-01-12T06:20:07.577Z,39.80
2019-01-12T06:21:07.624Z,39.10
2019-01-12T06:22:07.665Z,37.00
2019-01-12T06:23:07.715Z,36.50
2019-01-12T06:24:07.763Z,37.50
2019-01-12T06:25:07.800Z,37.50
2019-01-12T06:26:07.899Z,37.40
2019-01-12T06:27:07.879Z,36.50
2019-01-12T06:28:07.966Z,35.70
2019-01-12T06:29:08.136Z,36.40
2019-01-12T06:30:08.033Z,36.70
2019-01-12T06:31:08.081Z,36.90
2019-01-12T06:32:08.138Z,36.50
2019-01-12T06:33:08.227Z,35.30
2019-01-12T06:34:08.205Z,36.80
2019-01-12T06:35:08.277Z,35.80
2019-01-12T06:36:08.318Z,36.80
2019-01-12T06:37:08.371Z,35.60
2019-01-12T06:38:08.423Z,34.70
2019-01-12T06:39:08.480Z,32.80
2019-01-12T06:40:08.509Z,55.40
2019-01-12T06:41:08.547Z,32.00
2019-01-12T06:42:08.640Z,164.00
2019-01-12T06:43:08.665Z,30.50
2019-01-12T06:44:08.690Z,30.80
2019-01-12T06:45:08.750Z,30.30
2019-01-12T06:46:08.776Z,30.30
2019-01-12T06:47:08.989Z,30.50
2019-01-12T06:48:08.904Z,30.60
2019-01-12T06:49:08.939Z,31.40
2019-01-12T06:50:08.990Z,30.60
2019-01-12T06:51:09.031Z,29.90
2019-01-12T06:52:09.079Z,31.00
2019-01-12T06:53:09.131Z,30.20
2019-01-12T06:54:09.191Z,30.30
2019-01-12T06:55:09.232Z,30.50
2019-01-12T06:56:10.910Z,29.50
2019-01-12T06:57:09.321Z,29.70
2019-01-12T06:58:09.377Z,29.80
2019-01-12T06:59:09.406Z,29.20
2019-01-12T07:00:09.492Z,30.70
2019-01-12T07:01:09.545Z,28.20
2019-01-12T07:02:09.539Z,31.50
2019-01-12T07:03:09.608Z,30.80
2019-01-12T07:04:09.657Z,30.80
2019-01-12T07:05:09.708Z,29.20
2019-01-12T07:06:09.752Z,29.40
2019-01-12T07:07:09.789Z,30.10
2019-01-12T07:08:10.001Z,30.90
2019-01-12T07:09:09.880Z,32.30
2019-01-12T07:10:09.925Z,27.80
2019-01-12T07:11:10.034Z,32.20
2019-01-12T07:12:10.045Z,32.10
2019-01-12T07:13:10.071Z,32.40
2019-01-12T07:14:10.125Z,31.80
2019-01-12T07:15:10.170Z,34.30
2019-01-12T07:16:10.219Z,33.50
2019-01-12T07:17:10.259Z,33.50
2019-01-12T07:18:10.313Z,33.90
2019-01-12T07:19:10.360Z,33.30
2019-01-12T07:20:10.397Z,34.30
2019-01-12T07:21:10.497Z,34.70
2019-01-12T07:22:10.491Z,34.50
2019-01-12T07:23:10.537Z,35.00
2019-01-12T07:24:10.618Z,34.40
2019-01-12T07:25:10.789Z,32.70
2019-01-12T07:26:10.688Z,34.00
2019-01-12T07:27:10.748Z,35.00
2019-01-12T07:28:10.800Z,32.50
2019-01-12T07:29:10.834Z,32.80
2019-01-12T07:30:10.892Z,33.70
2019-01-12T07:31:10.925Z,32.90
2019-01-12T07:32:10.969Z,31.30
2019-01-12T07:33:11.022Z,28.70
2019-01-12T07:34:11.086Z,31.30
2019-01-12T07:35:11.089Z,31.40
2019-01-12T07:36:11.184Z,31.30
2019-01-12T07:37:11.210Z,30.60
2019-01-12T07:38:11.270Z,29.60
2019-01-12T07:39:11.307Z,29.20
2019-01-12T07:40:11.359Z,29.20
2019-01-12T07:41:11.403Z,27.90
2019-01-12T07:42:11.439Z,28.80
2019-01-12T07:43:11.492Z,27.50
2019-01-12T07:44:11.553Z,30.60
2019-01-12T07:45:11.606Z,28.10
2019-01-12T07:46:11.666Z,27.30
2019-01-12T07:47:11.663Z,25.10
2019-01-12T07:48:11.731Z,25.70
2019-01-12T07:49:11.760Z,28.00
2019-01-12T07:50:11.820Z,23.80
2019-01-12T07:51:11.891Z,26.30
2019-01-12T07:52:11.920Z,22.60
2019-01-12T07:53:11.953Z,23.70
2019-01-12T07:54:12.019Z,21.00
2019-01-12T07:55:12.067Z,21.30
2019-01-12T07:56:12.122Z,21.20
2019-01-12T07:57:12.141Z,22.60
2019-01-12T07:58:12.305Z,20.50
2019-01-12T07:59:12.255Z,20.50
2019-01-12T08:00:12.305Z,19.90
2019-01-12T08:01:12.359Z,19.60
2019-01-12T08:02:12.390Z,20.20
2019-01-12T08:03:12.434Z,19.10
2019-01-12T08:04:12.494Z,19.40
2019-01-12T08:05:12.539Z,20.00
2019-01-12T08:06:12.625Z,20.30
2019-01-12T08:07:12.622Z,19.80
2019-01-12T08:08:12.688Z,19.10
2019-01-12T08:09:12.743Z,18.90
2019-01-12T08:10:12.819Z,18.40
2019-01-12T08:11:12.811Z,19.30
2019-01-12T08:12:12.911Z,20.40
2019-01-12T08:13:12.955Z,19.20
2019-01-12T08:14:12.991Z,22.10
2019-01-12T08:15:13.023Z,19.00
2019-01-12T08:16:13.082Z,18.70
2019-01-12T08:17:13.115Z,19.20
2019-01-12T08:18:13.163Z,19.00
2019-01-12T08:19:13.207Z,18.50
2019-01-12T08:20:13.249Z,19.40
2019-01-12T08:21:13.304Z,19.60
2019-01-12T08:22:13.341Z,18.70
2019-01-12T08:23:13.401Z,19.90
2019-01-12T08:24:13.450Z,20.90
2019-01-12T08:25:13.495Z,19.60
2019-01-12T08:26:13.553Z,20.60
2019-01-12T08:27:13.575Z,20.70
2019-01-12T08:28:13.622Z,21.70
2019-01-12T08:29:13.693Z,21.70
2019-01-12T08:30:13.758Z,21.50
2019-01-12T08:31:13.782Z,22.20
2019-01-12T08:32:13.808Z,23.00
2019-01-12T08:33:13.863Z,23.50
2019-01-12T08:34:14.009Z,22.20
2019-01-12T08:35:13.944Z,22.40
2019-01-12T08:36:14.006Z,22.80
2019-01-12T08:37:14.052Z,22.80
2019-01-12T08:38:14.108Z,22.90
2019-01-12T08:39:14.143Z,23.00
2019-01-12T08:40:14.187Z,22.50
2019-01-12T08:41:14.278Z,22.50
2019-01-12T08:42:14.302Z,21.00
2019-01-12T08:43:14.358Z,22.00
2019-01-12T08:44:14.389Z,21.90
2019-01-12T08:45:14.438Z,22.40
2019-01-12T08:46:14.474Z,21.40
2019-01-12T08:47:14.512Z,24.40
2019-01-12T08:48:14.570Z,22.60
2019-01-12T08:49:14.596Z,20.20
2019-01-12T08:50:14.663Z,21.20
2019-01-12T08:51:14.729Z,22.60
2019-01-12T08:52:14.784Z,21.70
2019-01-12T08:53:14.807Z,21.50
2019-01-12T08:54:14.847Z,20.40
2019-01-12T08:55:14.917Z,19.50
2019-01-12T08:56:14.928Z,21.90
2019-01-12T08:57:14.992Z,20.10
2019-01-12T08:58:15.054Z,20.50
2019-01-12T08:59:15.095Z,19.70
2019-01-12T09:00:15.126Z,18.20
2019-01-12T09:01:15.209Z,19.30
2019-01-12T09:02:15.242Z,19.40
2019-01-12T09:03:15.353Z,19.00
2019-01-12T09:04:15.441Z,25.00
2019-01-12T09:05:15.383Z,18.40
2019-01-12T09:06:15.423Z,17.90
2019-01-12T09:07:15.490Z,16.80
2019-01-12T09:08:15.531Z,17.40
2019-01-12T09:09:15.544Z,16.30
2019-01-12T09:10:15.622Z,16.80
2019-01-12T09:11:15.643Z,16.30
2019-01-12T09:12:15.716Z,15.40
2019-01-12T09:13:15.760Z,15.70
2019-01-12T09:14:15.811Z,15.60
2019-01-12T09:15:15.857Z,15.00
2019-01-12T09:16:15.899Z,53.20
2019-01-12T09:17:15.970Z,15.90
2019-01-12T09:18:15.994Z,17.10
2019-01-12T09:19:16.033Z,15.60
2019-01-12T09:20:16.105Z,16.50
2019-01-12T09:21:16.151Z,16.20
2019-01-12T09:22:16.308Z,15.70
2019-01-12T09:23:16.228Z,16.50
2019-01-12T09:24:16.282Z,16.40
2019-01-12T09:25:16.329Z,16.40
2019-01-12T09:26:16.382Z,14.60
2019-01-12T09:27:16.411Z,16.60
2019-01-12T09:28:16.484Z,15.50
2019-01-12T09:29:16.531Z,14.80
2019-01-12T09:30:16.562Z,15.70
2019-01-12T09:31:16.660Z,14.70
2019-01-12T09:32:16.653Z,14.50
2019-01-12T09:33:16.715Z,13.40
2019-01-12T09:34:16.754Z,13.10
2019-01-12T09:35:16.811Z,13.90
2019-01-12T09:36:16.875Z,13.80
2019-01-12T09:37:16.921Z,12.70
2019-01-12T09:38:16.964Z,12.80
2019-01-12T09:39:17.003Z,13.60
2019-01-12T09:40:17.039Z,14.20
2019-01-12T09:41:17.114Z,13.40
2019-01-12T09:42:17.179Z,13.70
2019-01-12T09:43:17.173Z,13.10
2019-01-12T09:44:17.242Z,13.90
2019-01-12T09:45:17.280Z,14.50
2019-01-12T09:46:17.346Z,13.60
2019-01-12T09:47:17.375Z,15.30
2019-01-12T09:48:17.436Z,12.10
2019-01-12T09:49:17.592Z,11.40
2019-01-12T09:50:17.545Z,11.10
2019-01-12T09:51:17.584Z,10.70
2019-01-12T09:52:17.611Z,11.00
2019-01-12T09:53:17.691Z,10.10
2019-01-12T09:54:17.736Z,16.40
2019-01-12T09:55:17.769Z,11.70
2019-01-12T09:56:17.845Z,17.10
2019-01-12T09:57:17.894Z,13.00
2019-01-12T09:58:17.951Z,9.80
2019-01-12T09:59:18.022Z,9.40
2019-01-12T10:00:18.188Z,9.60
2019-01-12T10:01:18.122Z,9.10
2019-01-12T10:02:18.125Z,10.40
2019-01-12T10:03:18.168Z,9.90
2019-01-12T10:04:18.244Z,8.90
2019-01-12T10:05:18.325Z,9.00
2019-01-12T10:06:18.344Z,8.40
2019-01-12T10:07:18.373Z,8.90
2019-01-12T10:08:18.417Z,10.10
2019-01-12T10:09:18.463Z,10.10
2019-01-12T10:10:19.795Z,17.30
2019-01-12T10:11:18.575Z,9.10
2019-01-12T10:12:18.648Z,8.90
2019-01-12T10:13:18.693Z,9.00
2019-01-12T10:14:18.745Z,9.00
2019-01-12T10:15:18.799Z,8.90
2019-01-12T10:16:18.836Z,12.30
2019-01-12T10:17:18.899Z,8.00
2019-01-12T10:18:18.946Z,7.70
2019-01-12T10:19:19.003Z,12.20
2019-01-12T10:20:19.047Z,8.50
2019-01-12T10:21:19.138Z,11.30
2019-01-12T10:22:19.206Z,19.30
2019-01-12T10:23:19.216Z,7.30
2019-01-12T10:24:19.276Z,9.10
2019-01-12T10:25:19.319Z,14.60
2019-01-12T10:26:19.357Z,7.50
2019-01-12T10:27:19.458Z,17.90
2019-01-12T10:28:19.475Z,7.80
2019-01-12T10:29:19.543Z,6.90
2019-01-12T10:30:19.600Z,8.90
2019-01-12T10:31:19.654Z,18.80
2019-01-12T10:32:19.703Z,7.90
2019-01-12T10:33:19.743Z,18.20
2019-01-12T10:34:19.787Z,7.40
2019-01-12T10:35:19.839Z,6.70
2019-01-12T10:36:19.893Z,6.80
2019-01-12T10:37:19.959Z,7.20
2019-01-12T10:38:20.019Z,7.20
2019-01-12T10:39:20.073Z,7.20
2019-01-12T10:40:20.152Z,8.20
2019-01-12T10:41:20.205Z,7.30
2019-01-12T10:42:20.279Z,5.60
2019-01-12T10:43:20.284Z,6.80
2019-01-12T10:44:20.410Z,6.50
2019-01-12T10:45:20.413Z,7.50
2019-01-12T10:46:20.463Z,7.20
2019-01-12T10:47:20.524Z,6.40
2019-01-12T10:48:20.577Z,7.60
2019-01-12T10:49:20.624Z,7.10
2019-01-12T10:50:20.697Z,8.10
2019-01-12T10:51:20.776Z,10.60
2019-01-12T10:52:20.805Z,9.50
2019-01-12T10:53:20.854Z,7.40
2019-01-12T10:54:20.913Z,9.00
2019-01-12T10:55:20.970Z,7.10
2019-01-12T10:56:21.351Z,7.50
2019-01-12T10:57:21.082Z,7.30
2019-01-12T10:58:21.135Z,7.20
2019-01-12T10:59:21.193Z,7.50
2019-01-12T11:00:21.249Z,9.00
2019-01-12T11:01:21.309Z,8.00
2019-01-12T11:02:21.359Z,6.90
2019-01-12T11:03:21.398Z,7.60
2019-01-12T11:04:21.458Z,6.20
2019-01-12T11:05:21.531Z,8.10
2019-01-12T11:06:21.585Z,7.50
2019-01-12T11:07:21.651Z,7.30
2019-01-12T11:08:21.672Z,7.30
2019-01-12T11:09:21.753Z,7.10
2019-01-12T11:10:21.768Z,6.20
2019-01-12T11:11:21.871Z,7.70
2019-01-12T11:12:21.899Z,8.50
2019-01-12T11:13:21.968Z,8.40
2019-01-12T11:14:22.019Z,8.10
2019-01-12T11:15:22.115Z,6.30
2019-01-12T11:16:22.123Z,6.70
2019-01-12T11:17:22.179Z,8.60
2019-01-12T11:18:22.252Z,7.10
2019-01-12T11:19:22.305Z,8.10
2019-01-12T11:20:22.346Z,7.10
2019-01-12T11:21:22.428Z,8.40
2019-01-12T11:22:22.439Z,9.10
2019-01-12T11:23:22.509Z,7.90
2019-01-12T11:24:22.572Z,7.80
2019-01-12T11:25:22.613Z,7.70
2019-01-12T11:26:22.674Z,8.10
2019-01-12T11:27:22.722Z,8.60
2019-01-12T11:28:22.812Z,9.20
2019-01-12T11:29:22.826Z,8.50
2019-01-12T11:30:22.863Z,8.60
2019-01-12T11:31:22.922Z,8.70
2019-01-12T11:32:22.964Z,9.30
2019-01-12T11:33:23.044Z,8.90
2019-01-12T11:34:23.075Z,8.90
2019-01-12T11:35:23.170Z,10.00
2019-01-12T11:36:23.221Z,8.80
2019-01-12T11:37:23.266Z,9.30
2019-01-12T11:38:23.324Z,9.20
2019-01-12T11:39:23.379Z,8.80
2019-01-12T11:40:23.423Z,9.10
2019-01-12T11:41:23.468Z,8.90
2019-01-12T11:42:23.524Z,9.40
2019-01-12T11:43:23.584Z,9.50
2019-01-12T11:44:23.628Z,8.90
2019-01-12T11:45:23.700Z,9.40
2019-01-12T11:46:23.762Z,9.10
2019-01-12T11:47:23.788Z,9.40
2019-01-12T11:48:23.859Z,8.60
2019-01-12T11:49:23.919Z,8.80
2019-01-12T11:50:23.960Z,9.50
2019-01-12T11:51:24.008Z,9.40
2019-01-12T11:52:24.073Z,9.60
2019-01-12T11:53:24.140Z,9.40
2019-01-12T11:54:24.182Z,9.40
2019-01-12T11:55:24.238Z,9.10
2019-01-12T11:56:24.281Z,8.80
2019-01-12T11:57:24.322Z,8.20
2019-01-12T11:58:24.436Z,9.10
2019-01-12T11:59:24.435Z,7.90
2019-01-12T12:00:24.509Z,8.30
2019-01-12T12:01:24.541Z,8.40
2019-01-12T12:02:24.594Z,9.80
2019-01-12T12:03:24.663Z,9.10
2019-01-12T12:04:24.710Z,7.80
2019-01-12T12:05:24.770Z,8.50
2019-01-12T12:06:24.840Z,7.80
2019-01-12T12:07:24.887Z,7.10
2019-01-12T12:08:24.960Z,8.40
2019-01-12T12:09:25.002Z,8.50
2019-01-12T12:10:25.085Z,9.10
2019-01-12T12:11:25.115Z,7.70
2019-01-12T12:12:25.201Z,8.40
2019-01-12T12:13:25.218Z,7.90
2019-01-12T12:14:25.266Z,6.70
2019-01-12T12:15:25.334Z,8.00
2019-01-12T12:16:25.385Z,7.60
2019-01-12T12:17:25.454Z,8.00
2019-01-12T12:18:25.510Z,8.40
2019-01-12T12:19:25.625Z,8.10
2019-01-12T12:20:25.633Z,7.00
2019-01-12T12:21:25.677Z,7.90
2019-01-12T12:22:25.763Z,7.80
2019-01-12T12:23:25.810Z,7.70
2019-01-12T12:24:25.827Z,7.60
2019-01-12T12:25:25.912Z,8.70
2019-01-12T12:26:25.971Z,7.20
2019-01-12T12:27:26.218Z,7.10
2019-01-12T12:28:26.075Z,7.10
2019-01-12T12:29:26.120Z,7.10
2019-01-12T12:30:26.211Z,7.60
2019-01-12T12:31:26.275Z,7.30
2019-01-12T12:32:26.324Z,7.00
2019-01-12T12:33:26.371Z,7.90
2019-01-12T12:34:26.436Z,7.30
2019-01-12T12:35:26.481Z,6.60
2019-01-12T12:36:26.544Z,7.20
2019-01-12T12:37:26.624Z,6.80
2019-01-12T12:38:26.656Z,7.60
2019-01-12T12:39:26.719Z,7.70
2019-01-12T12:40:26.780Z,7.70
2019-01-12T12:41:26.841Z,8.00
2019-01-12T12:42:26.894Z,7.40
2019-01-12T12:43:26.951Z,7.90
2019-01-12T12:44:27.076Z,10.10
2019-01-12T12:45:27.071Z,8.30
2019-01-12T12:46:27.127Z,8.30
2019-01-12T12:47:27.190Z,7.80
2019-01-12T12:48:27.239Z,7.90
2019-01-12T12:49:27.298Z,7.40
2019-01-12T12:50:27.360Z,7.70
2019-01-12T12:51:27.421Z,7.60
2019-01-12T12:52:27.466Z,7.30
2019-01-12T12:53:27.526Z,7.10
2019-01-12T12:54:27.582Z,7.20
2019-01-12T12:55:27.804Z,8.00
2019-01-12T12:56:27.725Z,6.90
2019-01-12T12:57:32.887Z,7.00
2019-01-12T12:58:27.828Z,6.80
2019-01-12T12:59:27.901Z,7.10